• Join FlightAware (Why Join?)
  • Login
  • US Flag 
02:24AM EDT


 

Airport Tracker/Info


-or-


 

Live Flight TrackerFlight Track Log ✈ SWA3937 ✈ 18-Apr-2013 ✈ KPHX - KLIT

Flight Track Log - Related Links

Times and Time Zones

All times are in EDT time to prevent confusion due to time zone crossing. See the SWA3937 flight status page for this flight to view local times or setup timezone preferences in your user account.

Time Position Orientation Groundspeed Altitude Reporting Facility
EDT Latitude Longitude Course Direction KTS MPH feet Rate Location/Type
02:57PM 33.4333 -112.0333 248° West 177 204 2,200  Level Phoenix TRACON
02:57PM 33.4167 -112.0833 248° West 200 230 3,100 1,200 Climbing Phoenix TRACON
02:58PM 33.4108 -112.1014 249° West 213 245 3,600 2,400 Climbing Albuquerque Center
02:59PM 33.3769 -112.1672 238° Southwest 241 277 6,600 2,880 Climbing Albuquerque Center
03:00PM 33.3225 -112.1272 148° Southeast 261 300 9,600 2,460 Climbing Albuquerque Center
03:01PM 33.3317 -112.0333 83° East 293 337 11,800 2,640 Climbing Albuquerque Center
03:02PM 33.3661 -111.9086 72° East 334 384 15,100 2,820 Climbing Albuquerque Center
03:03PM 33.3953 -111.7931 73° East 360 414 17,700 2,400 Climbing Albuquerque Center
03:04PM 33.4269 -111.6714 73° East 383 441 20,100 2,340 Climbing Albuquerque Center
03:05PM 33.4600 -111.5431 73° East 403 464 22,600 2,460 Climbing Albuquerque Center
03:06PM 33.5000 -111.3822 73° East 422 486 25,300 2,220 Climbing Albuquerque Center
03:07PM 33.5183 -111.2381 81° East 442 509 27,200 1,740 Climbing Albuquerque Center
03:08PM 33.5344 -111.0872 83° East 456 525 28,900 1,500 Climbing Albuquerque Center
03:09PM 33.5519 -110.9319 82° East 467 537 30,400 1,380 Climbing Albuquerque Center
03:10PM 33.5933 -110.7811 72° East 475 547 31,800 1,140 Climbing Albuquerque Center
03:11PM 33.6419 -110.6289 69° East 485 558 32,800 1,320 Climbing Albuquerque Center
03:12PM 33.7022 -110.4436 69° East 493 567 34,600 1,440 Climbing Albuquerque Center
03:13PM 33.7497 -110.2892 70° East 499 574 35,800 900 Climbing Albuquerque Center
03:14PM 33.8000 -110.1325 69° East 502 578 36,500 540 Climbing Albuquerque Center
03:15PM 33.8517 -109.9708 69° East 514 592 37,000 240 Climbing Albuquerque Center
03:16PM 33.9031 -109.8097 69° East 518 596 37,000  Level Albuquerque Center
03:17PM 33.9639 -109.6169 69° East 517 595 37,000  Level Albuquerque Center
03:18PM 34.0147 -109.4569 69° East 515 593 37,000  Level Albuquerque Center
03:19PM 34.0650 -109.2958 69° East 516 594 37,000  Level Albuquerque Center
03:20PM 34.1150 -109.1344 69° East 516 594 37,000  Level Albuquerque Center
03:21PM 34.1592 -108.9703 72° East 517 595 37,000  Level Albuquerque Center
03:22PM 34.1800 -108.7600 83° East 527 606 37,000  Level Albuquerque Center
03:24PM 34.1969 -108.5847 83° East 528 608 37,000  Level Albuquerque Center
03:25PM 34.2139 -108.4075 83° East 532 612 37,000  Level Albuquerque Center
03:26PM 34.2308 -108.2308 83° East 533 613 37,000  Level Albuquerque Center
03:27PM 34.2458 -108.0425 84° East 537 618 37,000  Level Albuquerque Center
03:28PM 34.2619 -107.8644 84° East 534 615 37,000  Level Albuquerque Center
03:29PM 34.2783 -107.6867 84° East 533 613 37,000  Level Albuquerque Center
03:30PM 34.2972 -107.4756 84° East 529 609 37,000  Level Albuquerque Center
03:31PM 34.3125 -107.3019 84° East 525 604 37,000  Level Albuquerque Center
03:32PM 34.3294 -107.1208 83° East 533 613 37,000  Level Albuquerque Center
03:33PM 34.3442 -106.9494 84° East 525 604 37,000  Level Albuquerque Center
03:34PM 34.3575 -106.7739 85° East 525 604 37,000  Level Albuquerque Center
03:35PM 34.3744 -106.5639 84° East 528 608 37,000  Level Albuquerque Center
03:36PM 34.3878 -106.3869 85° East 529 609 37,000  Level Albuquerque Center
03:37PM 34.4031 -106.1967 84° East 529 609 37,000  Level Albuquerque Center
03:38PM 34.4158 -106.0167 85° East 531 611 37,000  Level Albuquerque Center
03:39PM 34.4306 -105.8403 84° East 527 606 37,000  Level Albuquerque Center
03:40PM 34.4428 -105.6606 85° East 529 609 37,000  Level Albuquerque Center
03:41PM 34.4564 -105.4814 85° East 530 610 37,000  Level Albuquerque Center
03:42PM 34.4686 -105.3006 85° East 534 615 37,000  Level Albuquerque Center
03:43PM 34.4833 -105.0894 85° East 535 616 37,000  Level Albuquerque Center
03:44PM 34.4956 -104.9092 85° East 535 616 37,000  Level Albuquerque Center
03:45PM 34.5081 -104.7300 85° East 533 613 37,000  Level Albuquerque Center
03:46PM 34.5197 -104.5533 85° East 527 606 37,000  Level Albuquerque Center
03:47PM 34.5311 -104.3750 86° East 528 608 37,000  Level Albuquerque Center
03:48PM 34.5419 -104.1972 86° East 528 608 37,000  Level Albuquerque Center
03:49PM 34.5542 -103.9897 86° East 527 606 37,000  Level Albuquerque Center
03:50PM 34.5650 -103.8100 86° East 530 610 37,000  Level Albuquerque Center
03:51PM 34.5756 -103.6317 86° East 530 610 37,000  Level Albuquerque Center
03:52PM 34.5853 -103.4514 86° East 531 611 37,000  Level Albuquerque Center
03:54PM 34.5956 -103.2714 86° East 533 613 37,000  Level Albuquerque Center
03:55PM 34.6044 -103.0908 87° East 534 615 37,000  Level Albuquerque Center
03:56PM 34.6150 -102.8797 86° East 533 613 37,000  Level Albuquerque Center
03:57PM 34.6228 -102.6992 87° East 533 613 37,000  Level Albuquerque Center
03:58PM 34.6325 -102.5186 86° East 535 616 37,000  Level Albuquerque Center
03:59PM 34.6403 -102.3389 87° East 535 616 37,000  Level Albuquerque Center
04:00PM 34.6481 -102.1586 87° East 538 619 37,000  Level Albuquerque Center
04:01PM 34.6561 -101.9769 87° East 541 623 37,000  Level Albuquerque Center
04:02PM 34.6661 -101.7592 87° East 543 625 37,000  Level Albuquerque Center
04:03PM 34.6731 -101.5769 87° East 545 627 37,000  Level Albuquerque Center
04:04PM 34.6797 -101.3953 87° East 546 628 37,000  Level Albuquerque Center
04:05PM 34.6858 -101.2131 88° East 544 626 37,000  Level Albuquerque Center
04:06PM 34.6933 -101.0311 87° East 544 626 37,000  Level Albuquerque Center
04:07PM 34.7000 -100.8128 88° East 543 625 37,000  Level Albuquerque Center
04:08PM 34.7058 -100.6331 88° East 539 620 37,000  Level Albuquerque Center
04:09PM 34.7117 -100.4542 88° East 534 615 37,000  Level Albuquerque Center
04:10PM 34.7181 -100.2522 88° East 535 616 37,000  Level Albuquerque Center
04:11PM 34.7231 -100.0717 88° East 535 616 37,000  Level Albuquerque Center
04:12PM 34.7264 -99.8906 89° East 535 616 37,000  Level Albuquerque Center
04:13PM 34.7289 -99.7833 88° East 531 611 37,000  Level Fort Worth Center
04:14PM 34.7319 -99.6067 89° East 531 611 37,000  Level Fort Worth Center
04:15PM 34.7350 -99.4222 89° East 531 611 37,000  Level Fort Worth Center
04:16PM 34.7400 -99.2456 88° East 531 611 37,000  Level Fort Worth Center
04:17PM 34.7425 -99.0661 89° East 531 611 37,000  Level Fort Worth Center
04:18PM 34.7467 -98.8869 88° East 531 611 37,000  Level Fort Worth Center
04:19PM 34.7508 -98.7075 88° East 531 611 37,000  Level Fort Worth Center
04:20PM 34.7525 -98.5281 89° East 531 611 37,000  Level Fort Worth Center
04:21PM 34.7542 -98.3361 89° East 526 605 37,000  Level Fort Worth Center
04:22PM 34.7553 -98.1567 90° East 526 605 37,000  Level Fort Worth Center
04:23PM 34.7583 -97.9747 89° East 526 605 37,000  Level Fort Worth Center
04:24PM 34.7589 -97.7953 90° East 531 611 37,000  Level Fort Worth Center
04:25PM 34.7594 -97.6081 90° East 536 617 37,000  Level Fort Worth Center
04:26PM 34.7617 -97.4261 89° East 536 617 37,000  Level Fort Worth Center
04:27PM 34.7594 -97.2417 91° East 536 617 37,000  Level Fort Worth Center
04:28PM 34.7611 -97.0597 89° East 536 617 37,000  Level Fort Worth Center
04:29PM 34.7606 -96.8803 90° East 531 611 37,000  Level Fort Worth Center
04:30PM 34.7617 -96.6958 90° East 531 611 37,000  Level Fort Worth Center
04:31PM 34.7606 -96.5136 90° East 531 611 37,000  Level Fort Worth Center
04:32PM 34.7614 -96.3342 90° East 531 611 37,000  Level Fort Worth Center
04:33PM 34.7594 -96.1522 91° East 531 611 37,000  Level Fort Worth Center
04:34PM 34.7575 -95.9703 91° East 531 611 37,000  Level Fort Worth Center
04:35PM 34.7575 -95.7883 90° East 531 611 37,000  Level Fort Worth Center
04:36PM 34.7589 -95.5136 90° East 573 659 37,000  Level Memphis Center
04:37PM 34.7558 -95.3342 91° East 551 634 37,000  Level Memphis Center
04:38PM 34.7525 -95.1519 91° East 546 628 37,000 -300 Level Memphis Center
04:39PM 34.7511 -94.9697 90° East 540 621 36,500 -900 Descending Memphis Center
04:40PM 34.7472 -94.7903 91° East 535 616 35,200 -2,460 Descending Memphis Center
04:41PM 34.7450 -94.6158 91° East 530 610 31,600 -3,600 Descending Memphis Center
04:42PM 34.6942 -94.4514 111° Southeast 517 595 28,000 -3,840 Descending Memphis Center
04:43PM 34.6328 -94.2819 114° Southeast 494 568 24,000 -2,520 Descending Memphis Center
04:44PM 34.6231 -94.1225 94° East 469 540 23,000 -540 Descending Memphis Center
04:45PM 34.6753 -93.9833 65° Northeast 440 506 23,000  Level Memphis Center
04:46PM 34.7267 -93.8567 64° Northeast 418 481 23,000 -720 Level Memphis Center
04:47PM 34.7886 -93.7356 58° Northeast 418 481 21,600 -1,260 Descending Memphis Center
04:48PM 34.8519 -93.6217 56° Northeast 411 473 20,500 -1,500 Descending Memphis Center
04:49PM 34.9114 -93.5100 57° Northeast 399 459 18,600 -1,860 Descending Memphis Center
04:50PM 34.9642 -93.3953 61° Northeast 394 453 16,800 -2,100 Descending Memphis Center
04:51PM 35.0169 -93.2806 61° Northeast 382 440 14,500 -2,100 Descending Memphis Center
04:52PM 35.0633 -93.1681 63° Northeast 382 440 12,700 -1,560 Descending Memphis Center
04:53PM 35.0658 -93.0617 88° East 337 388 11,400 -1,380 Descending Memphis Center
04:54PM 35.0656 -92.9728 90° East 312 359 10,100 -720 Descending Memphis Center
04:55PM 35.0492 -92.8581 100° East 310 357 10,000  Descending Memphis Center
04:56PM 35.0381 -92.7817 100° East 306 352 10,100 -660 Climbing Memphis Center
04:57PM 35.0422 -92.6703 87° East 315 362 8,800 -1,320 Descending Memphis Center
04:58PM 35.0506 -92.5664 84° East 313 360 7,500 -1,200 Descending Memphis Center
04:59PM 35.0567 -92.4475 86° East 306 352 6,300 -960 Descending Memphis Center
05:00PM 35.0453 -92.3711 100° East 267 307 5,600 -600 Descending Memphis Center
05:01PM 35.0344 -92.2692 97° East 269 310 5,100 -240 Descending Memphis Center
05:02PM 35.0064 -92.1978 116° Southeast 249 287 5,100  Level Memphis Center
05:03PM 34.9675 -92.1361 128° Southeast 237 273 5,100 -540 Level Memphis Center
05:04PM 34.9269 -92.0642 124° Southeast 238 274 4,100 -1,260 Descending Memphis Center
05:05PM 34.8728 -92.0606 177° South 181 208 2,600 -1,080 Descending Memphis Center
05:06PM 34.8431 -92.0828 212° Southwest 131 151 2,100 -300 Descending Memphis Center
05:07PM 34.8156 -92.1228 230° Southwest 132 152 2,100 -180 Level Memphis Center
05:08PM 34.7878 -92.1575 226° Southwest 140 161 1,800 -540 Descending Memphis Center
05:09PM 34.7625 -92.1872 224° Southwest 134 154 1,100 -780 Descending Memphis Center